Terminal Aerodrome Forecast
Issued by NWS Sterling, VA

Current Version | Previous Version | Graphics & Text | Print | Product List | Glossary On
Versions: 1 2 3 4 5 6 7 8 9 10 11 12 13 14 15 16 17 18 19 20 21 22 23 24 25 26
000
FTUS41 KLWX 172323
TAFIAD
TAF
KIAD 172323Z 1800/1906 19006KT 2SM BR OVC003
     FM180300 21007KT 3/4SM BR OVC008
     FM180600 23005KT 1SM BR OVC008
     FM180900 30004KT 1 1/2SM BR OVC015
     FM181200 31006KT P6SM BKN025
     FM181400 30010KT P6SM BKN035
     FM190100 32008KT P6SM SCT030=

USA.gov is the U.S. government's official web portal to all federal, state and local government web resources and services.